createdAt,value
2022-08-05T00:04:55.358Z,7.20
2022-08-05T00:10:00.192Z,6.80
2022-08-05T00:15:54.133Z,6.50
2022-08-05T00:20:30.248Z,6.50
2022-08-05T00:25:46.048Z,6.70
2022-08-05T00:30:52.148Z,7.20
2022-08-05T00:36:15.119Z,6.50
2022-08-05T00:41:52.232Z,7.40
2022-08-05T00:47:03.988Z,7.10
2022-08-05T00:52:09.883Z,6.40
2022-08-05T00:57:16.258Z,6.30
2022-08-05T01:02:28.281Z,6.60
2022-08-05T01:07:32.417Z,7.40
2022-08-05T01:12:38.589Z,6.60
2022-08-05T01:18:05.814Z,6.80
2022-08-05T01:23:34.835Z,6.60
2022-08-05T01:28:52.500Z,7.60
2022-08-05T01:34:13.819Z,7.20
2022-08-05T01:39:47.229Z,7.00
2022-08-05T01:44:54.369Z,6.90
2022-08-05T01:50:02.758Z,6.90
2022-08-05T01:55:13.866Z,7.60
2022-08-05T02:00:19.257Z,6.90
2022-08-05T02:05:31.145Z,7.60
2022-08-05T02:10:49.194Z,7.90
2022-08-05T02:16:22.084Z,7.30
2022-08-05T02:21:43.423Z,7.10
2022-08-05T02:26:58.958Z,8.40
2022-08-05T02:32:06.909Z,6.30
2022-08-05T02:37:14.778Z,7.20
2022-08-05T02:42:25.821Z,6.80
2022-08-05T02:48:06.427Z,6.80
2022-08-05T02:53:01.171Z,7.00
2022-08-05T02:58:20.224Z,7.00
2022-08-05T03:03:33.686Z,7.10
2022-08-05T03:08:43.760Z,7.70
2022-08-05T03:13:51.030Z,7.60
2022-08-05T03:19:12.681Z,7.90
2022-08-05T03:24:30.244Z,8.00
2022-08-05T03:29:45.136Z,7.40
2022-08-05T03:35:01.066Z,7.40
2022-08-05T03:40:11.881Z,7.40
2022-08-05T03:45:22.814Z,6.80
2022-08-05T03:50:49.436Z,7.70
2022-08-05T03:56:18.072Z,7.40
2022-08-05T04:01:35.721Z,7.30
2022-08-05T04:06:47.396Z,6.60
2022-08-05T04:11:52.894Z,6.80
2022-08-05T04:16:57.950Z,7.10
2022-08-05T04:22:08.823Z,7.10
2022-08-05T04:27:15.869Z,7.80
2022-08-05T04:32:31.292Z,8.10
2022-08-05T04:38:02.580Z,7.90
2022-08-05T04:43:05.451Z,7.10
2022-08-05T04:48:26.919Z,6.70
2022-08-05T04:53:35.341Z,7.70
2022-08-05T04:58:40.069Z,7.20
2022-08-05T05:03:45.329Z,7.30
2022-08-05T05:08:49.935Z,7.80
2022-08-05T05:13:55.262Z,8.00
2022-08-05T05:19:19.023Z,7.80
2022-08-05T05:24:56.209Z,7.80
2022-08-05T05:30:05.063Z,8.10
2022-08-05T05:35:10.249Z,8.70
2022-08-05T05:40:26.837Z,8.90
2022-08-05T05:45:32.291Z,8.10
2022-08-05T05:50:43.814Z,7.40
2022-08-05T05:55:52.451Z,8.10
2022-08-05T06:01:12.816Z,8.20
2022-08-05T06:06:19.556Z,8.70
2022-08-05T06:11:29.050Z,7.80
2022-08-05T06:16:37.177Z,7.30
2022-08-05T06:21:42.949Z,7.20
2022-08-05T06:26:54.202Z,6.00
2022-08-05T06:32:00.097Z,8.20
2022-08-05T06:37:04.534Z,7.80
2022-08-05T06:42:10.492Z,7.00
2022-08-05T06:48:11.545Z,6.60
2022-08-05T06:52:40.606Z,6.00
2022-08-05T06:57:57.900Z,5.50
2022-08-05T07:03:09.738Z,6.30
2022-08-05T07:08:14.577Z,6.00
2022-08-05T07:13:54.288Z,6.20
2022-08-05T07:19:02.755Z,5.80
2022-08-05T07:24:11.126Z,6.30
2022-08-05T07:29:16.248Z,7.20
2022-08-05T07:34:21.598Z,5.20
2022-08-05T07:40:04.306Z,5.50
2022-08-05T07:44:57.100Z,6.40
2022-08-05T07:50:06.616Z,5.40
2022-08-05T07:55:44.002Z,5.50
2022-08-05T08:00:36.839Z,4.90
2022-08-05T08:05:49.832Z,5.50
2022-08-05T08:10:56.371Z,5.30
2022-08-05T08:16:35.317Z,4.90
2022-08-05T08:21:25.101Z,5.30
2022-08-05T08:26:30.157Z,3.90
2022-08-05T08:31:34.612Z,4.80
2022-08-05T08:36:50.584Z,4.10
2022-08-05T08:42:02.529Z,4.90
2022-08-05T08:47:47.747Z,4.50
2022-08-05T08:52:37.955Z,4.50
2022-08-05T08:57:58.079Z,5.20
2022-08-05T09:03:07.284Z,3.80
2022-08-05T09:08:11.436Z,4.70
2022-08-05T09:13:16.767Z,4.80
2022-08-05T09:18:21.211Z,4.10
2022-08-05T09:23:27.232Z,4.00
2022-08-05T09:28:42.074Z,4.00
2022-08-05T09:34:00.194Z,3.90
2022-08-05T09:39:18.514Z,4.10
2022-08-05T09:44:49.319Z,4.20
2022-08-05T09:50:01.113Z,3.60
2022-08-05T09:55:58.579Z,3.60
2022-08-05T10:00:37.168Z,3.90
2022-08-05T10:05:42.423Z,3.10
2022-08-05T10:10:48.164Z,3.80
2022-08-05T10:15:54.578Z,3.60
2022-08-05T10:21:06.350Z,3.80
2022-08-05T10:26:16.014Z,3.70
2022-08-05T10:32:53.997Z,4.00
2022-08-05T10:36:46.524Z,3.70
2022-08-05T10:47:26.585Z,3.70
2022-08-05T10:53:01.060Z,3.10
2022-08-05T10:58:15.647Z,4.30
2022-08-05T11:03:27.089Z,3.90
2022-08-05T11:08:37.386Z,3.00
2022-08-05T11:13:57.634Z,3.40
2022-08-05T11:20:11.183Z,4.10
2022-08-05T11:26:06.036Z,3.30
2022-08-05T11:30:58.729Z,3.10
2022-08-05T11:36:11.514Z,3.80
2022-08-05T11:41:58.120Z,3.00
2022-08-05T11:47:09.403Z,3.00
2022-08-05T11:52:29.477Z,3.70
2022-08-05T11:58:08.679Z,3.10
2022-08-05T12:02:59.433Z,3.50
2022-08-05T12:08:09.693Z,3.40
2022-08-05T12:13:27.876Z,3.30
2022-08-05T12:24:04.445Z,3.50
2022-08-05T12:29:26.995Z,4.60
2022-08-05T12:34:37.601Z,3.20
2022-08-05T12:39:42.228Z,3.30
2022-08-05T12:44:47.966Z,3.70
2022-08-05T12:50:03.253Z,4.00
2022-08-05T12:55:25.413Z,3.50
2022-08-05T13:02:02.842Z,2.90
2022-08-05T13:05:59.824Z,4.50
2022-08-05T13:11:05.171Z,4.20
2022-08-05T13:16:17.543Z,3.40
2022-08-05T13:21:22.453Z,3.20
2022-08-05T13:26:32.525Z,3.80
2022-08-05T13:32:03.979Z,3.50
2022-08-05T13:37:01.141Z,4.10
2022-08-05T13:42:05.944Z,3.90
2022-08-05T13:47:10.448Z,3.60
2022-08-05T13:52:35.875Z,3.80
2022-08-05T13:57:50.810Z,4.20
2022-08-05T14:02:58.428Z,4.00
2022-08-05T14:08:11.129Z,4.00
2022-08-05T14:13:26.377Z,4.20
2022-08-05T14:18:30.647Z,3.90
2022-08-05T14:23:37.176Z,4.20
2022-08-05T14:28:52.193Z,3.80
2022-08-05T14:33:59.784Z,4.10
2022-08-05T14:39:06.725Z,4.40
2022-08-05T14:44:21.965Z,4.30
2022-08-05T14:49:59.233Z,3.60
2022-08-05T14:54:53.512Z,4.50
2022-08-05T14:59:57.859Z,4.50
2022-08-05T15:05:08.584Z,3.90
2022-08-05T15:10:18.202Z,4.10
2022-08-05T15:15:54.536Z,4.20
2022-08-05T15:20:58.012Z,4.20
2022-08-05T15:26:12.571Z,4.60
2022-08-05T15:31:17.112Z,4.30
2022-08-05T15:36:25.670Z,5.20
2022-08-05T15:41:55.409Z,3.90
2022-08-05T15:47:00.713Z,3.80
2022-08-05T15:52:16.843Z,3.80
2022-08-05T15:57:34.796Z,3.90
2022-08-05T16:02:39.837Z,3.30
2022-08-05T16:07:46.437Z,3.90
2022-08-05T16:12:52.078Z,4.40
2022-08-05T16:17:57.661Z,4.50
2022-08-05T16:23:04.297Z,4.90
2022-08-05T16:28:14.165Z,4.20
2022-08-05T16:33:19.654Z,4.30
2022-08-05T16:38:28.040Z,4.10
2022-08-05T16:43:36.199Z,4.70
2022-08-05T16:48:41.441Z,3.60
2022-08-05T16:54:04.997Z,4.20
2022-08-05T16:59:15.693Z,3.40
2022-08-05T17:04:26.314Z,8.20
2022-08-05T17:09:57.688Z,4.40
2022-08-05T17:20:09.752Z,4.70
2022-08-05T17:25:39.264Z,4.90
2022-08-05T17:30:50.706Z,4.70
2022-08-05T17:36:10.067Z,5.60
2022-08-05T17:42:18.393Z,4.40
2022-08-05T17:46:47.891Z,5.60
2022-08-05T17:51:53.979Z,6.00
2022-08-05T17:56:59.699Z,4.60
2022-08-05T18:02:04.152Z,5.60
2022-08-05T18:07:15.124Z,6.10
2022-08-05T18:12:22.238Z,6.00
2022-08-05T18:17:59.723Z,6.00
2022-08-05T18:22:54.494Z,6.10
2022-08-05T18:28:07.608Z,5.90
2022-08-05T18:33:14.463Z,6.10
2022-08-05T18:38:26.074Z,6.80
2022-08-05T18:43:38.365Z,6.70
2022-08-05T18:48:47.739Z,7.20
2022-08-05T18:53:58.837Z,10.90
2022-08-05T18:59:43.058Z,9.40
2022-08-05T19:04:32.643Z,8.60
2022-08-05T19:09:40.144Z,9.60
2022-08-05T19:15:00.821Z,12.20
2022-08-05T19:20:09.975Z,10.70
2022-08-05T19:25:29.662Z,11.30
2022-08-05T19:30:34.927Z,9.90
2022-08-05T19:35:55.965Z,9.50
2022-08-05T19:41:01.452Z,10.60
2022-08-05T19:46:06.000Z,10.50
2022-08-05T19:52:05.668Z,9.70
2022-08-05T19:56:50.619Z,20.70
2022-08-05T20:01:55.937Z,12.20
2022-08-05T20:07:00.816Z,11.10
2022-08-05T20:12:06.203Z,11.10
2022-08-05T20:17:12.540Z,11.50
2022-08-05T20:22:20.796Z,11.90
2022-08-05T20:27:41.762Z,12.50
2022-08-05T20:32:46.500Z,16.60
2022-08-05T20:38:06.147Z,15.60
2022-08-05T20:43:12.447Z,15.10
2022-08-05T20:48:17.316Z,12.20
2022-08-05T20:53:37.153Z,12.60
2022-08-05T20:58:45.444Z,13.40
2022-08-05T21:03:49.652Z,13.20
2022-08-05T21:08:55.126Z,13.50
2022-08-05T21:14:02.331Z,12.70
2022-08-05T21:19:06.483Z,13.90
2022-08-05T21:24:12.743Z,14.30
2022-08-05T21:29:17.302Z,13.40
2022-08-05T21:34:24.462Z,15.10
2022-08-05T21:39:28.681Z,13.50
2022-08-05T21:44:35.843Z,13.50
2022-08-05T21:49:58.654Z,12.70
2022-08-05T21:55:06.860Z,11.70
2022-08-05T22:00:13.267Z,11.40
2022-08-05T22:05:19.025Z,11.10
2022-08-05T22:10:34.588Z,10.50
2022-08-05T22:16:02.035Z,9.70
2022-08-05T22:21:18.887Z,8.80
2022-08-05T22:26:42.470Z,9.90
2022-08-05T22:31:55.261Z,9.30
2022-08-05T22:37:04.777Z,8.30
2022-08-05T22:42:15.445Z,8.70
2022-08-05T22:47:31.281Z,8.50
2022-08-05T22:52:36.147Z,9.30
2022-08-05T22:57:40.746Z,8.30
2022-08-05T23:02:47.000Z,8.60
2022-08-05T23:07:53.205Z,9.50
2022-08-05T23:12:57.633Z,9.90
2022-08-05T23:18:11.437Z,8.20
2022-08-05T23:23:16.065Z,9.00
2022-08-05T23:28:20.610Z,8.80
2022-08-05T23:34:06.214Z,8.60
2022-08-05T23:38:50.578Z,8.20
2022-08-05T23:44:05.297Z,8.90
2022-08-05T23:49:15.836Z,8.40
2022-08-05T23:54:25.820Z,10.10
